aviador You're here:

LFQQ Decoded Metar

LILLE in FRANCE
Report Time2017-09-20 16:00:00
UTC Time2017-09-20 16:26:43
Flight Rules vfr VFR
Wind240° at 08 kt
W.Decomp.*RWY 26: 7.5 kt HW 2.7 kt LCW
RWY 20: 6.1 kt HW 5.1 kt RCW
W.Rank240° ranks 5
Current wind is below 240° avg. (8.8)
Visibility9999 m
Phenomena:N/A
Clouds:N/A
Expected CloudBase > 2,800 ft AGL from Temp-Dew spread
CeilingNone
Temp17°C (ISA +2)
Dew Point10°C (64% RH)
AAT14.2°C
QNH1020 hPa
Density Alt377 ft
Elevation171 ft
Report Wrong Elevation
Raw Report
LFQQ 201600Z AUTO 24008KT CAVOK 17/10 Q1020 NOSIG=

Extra information for LFQQ:More info

Metar Taf Metar & Taf Last 4 Metars F.Rules Stats Wind Profile Meteogram Temp Stats Airport Information Weather charts Add Link Nearby VenuesMetar ALERT Operation Metar Decoded Social comments